Flight Track Log - Related Links

Times and Time Zones

All times are in EDT time to prevent confusion due to time zone crossing. See the KAP910 flight status page for this flight to view local times or setup timezone preferences in your user account.

Time Position Orientation Groundspeed Altitude Reporting Facility
EDT Latitude Longitude Course Direction KTS MPH feet Rate Location/Type
Mon 07:32:00 AM 41.6832 -70.6655 280° West  Level FlightAware Approximate
Mon 07:33:00 AM 41.6834 -70.7322 270° West  Level FlightAware Approximate
Mon 07:33:26 AM 41.6531 -70.5536 275° West 161 185 6,100  Level Boston Center
Mon 07:33:56 AM 41.6642 -70.5839 296° West 175 201 6,400 264 Climbing Boston Center
Mon 07:34:00 AM 41.6834 -70.7990 270° West  Level FlightAware Approximate
Mon 07:34:57 AM 41.7042 -70.6161 329° Northwest 172 198 6,500  Level Boston Center
Mon 07:35:00 AM 41.6833 -70.8658 270° West  Level FlightAware Approximate
Mon 07:36:00 AM 41.6875 -70.9324 275° West  Level FlightAware Approximate
Mon 07:37:00 AM 41.6916 -70.9989 275° West  Level FlightAware Approximate
Mon 07:37:43 AM 41.8167 -70.7167 326° Northwest 159 183 7,600  Level KA90
Mon 07:38:00 AM 41.6957 -71.0655 275° West  Level FlightAware Approximate
Mon 07:38:36 AM 41.8500 -70.7500 323° Northwest 160 184 8,000  Level KA90
Mon 07:39:39 AM 41.8833 -70.7667 340° North 166 191 8,400 300 Climbing KA90
Mon 07:40:36 AM 41.9333 -70.8000 334° Northwest 170 196 8,600 103 Climbing KA90
Mon 07:41:36 AM 41.9667 -70.8500 312° West 180 207 8,600  Level KA90
Mon 07:42:38 AM 42.0167 -70.8833 334° Northwest 174 200 8,600  Level KA90
Mon 07:43:36 AM 42.0500 -70.9167 323° Northwest 173 199 8,600  Level KA90
Mon 07:44:39 AM 42.1000 -70.9333 346° North 171 197 8,600  Level KA90
Mon 07:45:44 AM 42.1333 -70.9833 312° West 173 199 8,600  Level KA90
Mon 07:47:00 AM 42.1781 -71.0219 327° Northwest  Level Estimated
Mon 07:47:42 AM 42.2167 -71.0500 327° Northwest 173 199 8,600  Level KA90
Mon 07:48:42 AM 42.2667 -71.0833 334° Northwest 170 196 8,600  Level KA90
Mon 07:49:44 AM 42.3000 -71.1167 324° Northwest 174 200 8,600  Level KA90
Mon 07:50:42 AM 42.3500 -71.1500 334° Northwest 170 196 8,600  Level KA90
Mon 07:51:36 AM 42.3833 -71.1833 324° Northwest 172 198 8,600  Level KA90
Mon 07:52:39 AM 42.4167 -71.2167 324° Northwest 171 197 8,600  Level KA90
Mon 07:53:36 AM 42.4500 -71.2500 324° Northwest 173 199 8,600  Level KA90
Mon 07:54:36 AM 42.5000 -71.3000 324° Northwest 172 198 8,600  Level KA90
Mon 07:55:33 AM 42.5333 -71.3167 340° North 172 198 8,600  Level KA90
Mon 07:56:32 AM 42.5667 -71.3500 324° Northwest 171 197 8,600  Level KA90
Mon 07:57:33 AM 42.6167 -71.3833 334° Northwest 172 198 8,600  Level KA90
Mon 07:58:33 AM 42.6500 -71.4333 312° West 171 197 8,600  Level KA90
Mon 07:59:36 AM 42.7000 -71.4667 334° Northwest 171 197 8,600  Level KA90
Mon 08:00:39 AM 42.7333 -71.5000 324° Northwest 170 196 8,600  Level KA90
Mon 08:01:33 AM 42.7667 -71.5333 324° Northwest 171 197 8,600  Level KA90
Mon 08:02:36 AM 42.8167 -71.5667 334° Northwest 171 197 8,600  Level KA90
Mon 08:03:33 AM 42.8500 -71.6000 324° Northwest 172 198 8,600  Level KA90
Mon 08:04:30 AM 42.8833 -71.6333 324° Northwest 173 199 8,600  Level KA90
Mon 08:05:33 AM 42.9333 -71.6833 324° Northwest 173 199 8,600 -103 Level KA90
Mon 08:06:27 AM 42.9667 -71.7000 340° North 175 201 8,400 -347 Descending KA90
Mon 08:08:26 AM 43.0508 -71.7839 324° Northwest 191 220 7,600 -369 Descending Boston Center
Mon 08:09:26 AM 43.0969 -71.8258 326° Northwest 186 214 7,300 -350 Descending Boston Center
Mon 08:10:26 AM 43.1367 -71.8625 326° Northwest 186 214 6,900 -300 Descending Boston Center
Mon 08:11:26 AM 43.1828 -71.8992 330° Northwest 186 214 6,700 -300 Descending Boston Center
Mon 08:12:26 AM 43.2203 -71.9358 325° Northwest 186 214 6,300 -367 Descending Boston Center
Mon 08:14:26 AM 43.3061 -72.0150 326° Northwest 186 214 5,600 -333 Descending Boston Center
Mon 08:15:26 AM 43.3500 -72.0575 325° Northwest 181 208 5,300 -300 Descending Boston Center
Mon 08:16:26 AM 43.3878 -72.0972 323° Northwest 181 208 5,000 -350 Descending Boston Center
Mon 08:17:26 AM 43.4294 -72.1400 323° Northwest 181 208 4,600 -400 Descending Boston Center
Mon 08:19:00 AM 43.4877 -72.1897 328° Northwest  Level FlightAware Approximate
Mon 08:26:00 AM 43.6167 -72.3000 324° Northwest  Level FlightAware Approximate
Mon 08:27:00 AM 43.6261 -72.3042 324° Northwest  Level Estimated
Mon 08:28:00 AM 43.6261 -72.3042 324° Northwest  Level Estimated
Mon 08:29:00 AM 43.6261 -72.3042 324° Northwest  Level Estimated
Mon 08:30:00 AM 43.6261 -72.3042 324° Northwest  Level Estimated
Mon 08:31:00 AM 43.6261 -72.3042 324° Northwest  Level Estimated
Mon 08:32:00 AM 43.6261 -72.3042 324° Northwest  Level Estimated
Mon 08:33:00 AM 43.6261 -72.3042 324° Northwest  Level Estimated
Mon 08:34:00 AM 43.6261 -72.3042 324° Northwest  Level Estimated
Mon 08:35:00 AM 43.6261 -72.3042 324° Northwest  Level Estimated
Mon 08:36:00 AM 43.6261 -72.3042 324° Northwest  Level Estimated
Mon 08:37:00 AM 43.6261 -72.3042 324° Northwest  Level Estimated
Mon 08:38:00 AM 43.6261 -72.3042 324° Northwest  Level Estimated
Mon 08:39:00 AM 43.6261 -72.3042 324° Northwest  Level Estimated
Mon 08:40:00 AM 43.6261 -72.3042 324° Northwest  Level Estimated
Mon 08:41:00 AM 43.6261 -72.3042 324° Northwest  Level Estimated
Mon 08:42:00 AM 43.6261 -72.3042 324° Northwest  Level Estimated
Mon 08:43:00 AM 43.6261 -72.3042 324° Northwest  Level Estimated

Login

Don't have an account? Register now (free) for customized features, flight alerts, and more!